createdAt,value
2019-01-20T00:00:25.948Z,-2.99
2019-01-20T00:01:26.589Z,-2.96
2019-01-20T00:02:27.215Z,-2.94
2019-01-20T00:03:27.851Z,-2.92
2019-01-20T00:04:28.489Z,-2.99
2019-01-20T00:05:29.121Z,-2.99
2019-01-20T00:06:29.750Z,-2.96
2019-01-20T00:07:30.390Z,-2.99
2019-01-20T00:08:31.019Z,-2.94
2019-01-20T00:09:31.660Z,-3.02
2019-01-20T00:10:33.348Z,-2.96
2019-01-20T00:11:33.930Z,-3.02
2019-01-20T00:12:34.564Z,-3.02
2019-01-20T00:13:35.192Z,-2.99
2019-01-20T00:14:35.827Z,-3.02
2019-01-20T00:15:36.451Z,-3.00
2019-01-20T00:16:37.087Z,-3.04
2019-01-20T00:17:37.717Z,-3.05
2019-01-20T00:18:38.351Z,-3.00
2019-01-20T00:19:38.989Z,-3.00
2019-01-20T00:20:39.624Z,-3.05
2019-01-20T00:21:40.254Z,-3.07
2019-01-20T00:22:40.891Z,-2.99
2019-01-20T00:23:41.517Z,-3.02
2019-01-20T00:24:42.162Z,-3.08
2019-01-20T00:25:42.796Z,-3.14
2019-01-20T00:26:43.421Z,-3.17
2019-01-20T00:27:44.068Z,-3.18
2019-01-20T00:28:44.701Z,-3.10
2019-01-20T00:29:45.334Z,-3.18
2019-01-20T00:30:45.968Z,-3.17
2019-01-20T00:31:46.599Z,-3.17
2019-01-20T00:32:47.230Z,-3.17
2019-01-20T00:33:47.861Z,-3.14
2019-01-20T00:34:48.496Z,-3.23
2019-01-20T00:35:49.136Z,-3.20
2019-01-20T00:36:49.768Z,-3.23
2019-01-20T00:37:50.404Z,-3.18
2019-01-20T00:38:51.038Z,-3.25
2019-01-20T00:39:51.665Z,-3.36
2019-01-20T00:40:52.315Z,-3.33
2019-01-20T00:41:52.938Z,-3.33
2019-01-20T00:42:53.568Z,-3.35
2019-01-20T00:43:54.204Z,-3.26
2019-01-20T00:45:02.362Z,-3.32
2019-01-20T00:45:56.477Z,-3.35
2019-01-20T00:46:57.111Z,-3.33
2019-01-20T00:47:57.752Z,-3.31
2019-01-20T00:48:58.385Z,-3.32
2019-01-20T00:49:59.000Z,-3.33
2019-01-20T00:50:59.642Z,-3.28
2019-01-20T00:52:00.274Z,-3.38
2019-01-20T00:53:00.910Z,-3.26
2019-01-20T00:54:01.639Z,-3.32
2019-01-20T00:55:02.314Z,-3.29
2019-01-20T00:56:02.889Z,-3.29
2019-01-20T00:57:03.525Z,-3.35
2019-01-20T00:58:04.183Z,-3.35
2019-01-20T00:59:05.185Z,-3.32
2019-01-20T01:00:05.819Z,-3.35
2019-01-20T01:01:06.441Z,-3.35
2019-01-20T01:02:07.079Z,-3.41
2019-01-20T01:03:07.710Z,-3.41
2019-01-20T01:04:08.338Z,-3.43
2019-01-20T01:05:08.985Z,-3.43
2019-01-20T01:06:09.615Z,-3.43
2019-01-20T01:07:10.264Z,-3.43
2019-01-20T01:08:10.888Z,-3.44
2019-01-20T01:09:11.525Z,-3.44
2019-01-20T01:10:12.152Z,-3.46
2019-01-20T01:11:12.795Z,-3.53
2019-01-20T01:12:13.429Z,-3.54
2019-01-20T01:13:14.076Z,-3.51
2019-01-20T01:14:14.713Z,-3.49
2019-01-20T01:15:15.345Z,-3.49
2019-01-20T01:16:15.980Z,-3.53
2019-01-20T01:17:16.612Z,-3.51
2019-01-20T01:18:17.240Z,-3.51
2019-01-20T01:19:17.888Z,-3.53
2019-01-20T01:20:18.525Z,-3.46
2019-01-20T01:21:19.163Z,-3.43
2019-01-20T01:22:19.786Z,-3.51
2019-01-20T01:23:20.422Z,-3.46
2019-01-20T01:24:21.051Z,-3.54
2019-01-20T01:25:21.678Z,-3.53
2019-01-20T01:26:22.313Z,-3.53
2019-01-20T01:27:22.949Z,-3.54
2019-01-20T01:28:23.580Z,-3.56
2019-01-20T01:29:24.232Z,-3.54
2019-01-20T01:30:24.847Z,-3.53
2019-01-20T01:31:25.483Z,-3.56
2019-01-20T01:32:26.115Z,-3.53
2019-01-20T01:33:26.757Z,-3.50
2019-01-20T01:34:27.415Z,-3.51
2019-01-20T01:35:28.012Z,-3.53
2019-01-20T01:36:28.668Z,-3.51
2019-01-20T01:37:29.301Z,-3.46
2019-01-20T01:38:29.932Z,-3.53
2019-01-20T01:39:30.568Z,-3.53
2019-01-20T01:40:31.199Z,-3.51
2019-01-20T01:41:38.848Z,-3.50
2019-01-20T01:42:32.456Z,-3.51
2019-01-20T01:43:33.133Z,-3.62
2019-01-20T01:44:33.745Z,-3.51
2019-01-20T01:45:34.499Z,-3.62
2019-01-20T01:46:35.127Z,-3.61
2019-01-20T01:47:35.767Z,-3.64
2019-01-20T01:48:36.392Z,-3.71
2019-01-20T01:49:37.017Z,-3.60
2019-01-20T01:50:37.660Z,-3.71
2019-01-20T01:51:38.303Z,-3.76
2019-01-20T01:52:38.936Z,-3.76
2019-01-20T01:53:39.567Z,-3.62
2019-01-20T01:54:40.217Z,-3.68
2019-01-20T01:55:41.122Z,-3.67
2019-01-20T01:56:41.471Z,-3.84
2019-01-20T01:57:42.110Z,-3.71
2019-01-20T01:58:42.752Z,-3.68
2019-01-20T01:59:43.399Z,-3.89
2019-01-20T02:00:44.027Z,-3.78
2019-01-20T02:01:44.672Z,-3.87
2019-01-20T02:02:46.301Z,-3.78
2019-01-20T02:03:46.935Z,-3.91
2019-01-20T02:04:47.571Z,-3.93
2019-01-20T02:05:48.203Z,-3.96
2019-01-20T02:06:48.839Z,-3.93
2019-01-20T02:07:49.469Z,-3.89
2019-01-20T02:08:50.128Z,-3.89
2019-01-20T02:09:50.745Z,-3.93
2019-01-20T02:10:51.378Z,-3.96
2019-01-20T02:11:52.007Z,-3.94
2019-01-20T02:12:52.635Z,-4.04
2019-01-20T02:13:53.284Z,-3.96
2019-01-20T02:14:53.904Z,-3.93
2019-01-20T02:15:55.540Z,-4.04
2019-01-20T02:16:56.167Z,-4.02
2019-01-20T02:17:56.808Z,-4.07
2019-01-20T02:18:57.445Z,-4.02
2019-01-20T02:19:58.176Z,-4.04
2019-01-20T02:20:58.812Z,-4.07
2019-01-20T02:21:59.444Z,-4.05
2019-01-20T02:23:00.072Z,-3.99
2019-01-20T02:24:00.758Z,-3.99
2019-01-20T02:25:01.343Z,-4.09
2019-01-20T02:26:02.042Z,-4.11
2019-01-20T02:27:02.646Z,-4.07
2019-01-20T02:28:03.288Z,-4.08
2019-01-20T02:29:03.916Z,-4.09
2019-01-20T02:30:04.552Z,-4.07
2019-01-20T02:31:05.193Z,-4.15
2019-01-20T02:32:05.892Z,-4.05
2019-01-20T02:33:06.498Z,-4.09
2019-01-20T02:34:07.168Z,-4.09
2019-01-20T02:35:07.776Z,-4.12
2019-01-20T02:36:08.495Z,-4.15
2019-01-20T02:37:09.119Z,-4.08
2019-01-20T02:38:09.766Z,-4.09
2019-01-20T02:39:10.400Z,-4.08
2019-01-20T02:40:11.028Z,-4.07
2019-01-20T02:41:11.670Z,-4.11
2019-01-20T02:42:12.313Z,-4.12
2019-01-20T02:43:12.945Z,-4.11
2019-01-20T02:44:13.581Z,-4.12
2019-01-20T02:45:14.215Z,-4.14
2019-01-20T02:46:14.847Z,-4.08
2019-01-20T02:47:15.478Z,-4.18
2019-01-20T02:48:17.122Z,-4.18
2019-01-20T02:49:17.782Z,-4.25
2019-01-20T02:50:18.665Z,-4.20
2019-01-20T02:51:19.023Z,-4.19
2019-01-20T02:52:19.643Z,-4.30
2019-01-20T02:53:20.279Z,-4.22
2019-01-20T02:54:20.912Z,-4.23
2019-01-20T02:55:21.552Z,-4.25
2019-01-20T02:56:22.192Z,-4.20
2019-01-20T02:57:22.822Z,-4.22
2019-01-20T02:58:23.458Z,-4.25
2019-01-20T02:59:24.090Z,-4.29
2019-01-20T03:00:24.722Z,-4.32
2019-01-20T03:01:25.351Z,-4.20
2019-01-20T03:02:25.987Z,-4.22
2019-01-20T03:03:26.620Z,-4.26
2019-01-20T03:04:27.264Z,-4.26
2019-01-20T03:05:27.901Z,-4.29
2019-01-20T03:06:28.539Z,-4.28
2019-01-20T03:07:29.169Z,-4.32
2019-01-20T03:08:29.802Z,-4.28
2019-01-20T03:09:30.501Z,-4.26
2019-01-20T03:10:31.053Z,-4.32
2019-01-20T03:11:31.690Z,-4.36
2019-01-20T03:12:32.322Z,-4.30
2019-01-20T03:13:32.949Z,-4.28
2019-01-20T03:14:33.590Z,-4.36
2019-01-20T03:15:34.210Z,-4.37
2019-01-20T03:16:34.853Z,-4.36
2019-01-20T03:17:35.485Z,-4.36
2019-01-20T03:18:36.119Z,-4.37
2019-01-20T03:19:36.753Z,-4.40
2019-01-20T03:20:37.381Z,-4.36
2019-01-20T03:21:38.022Z,-4.43
2019-01-20T03:22:38.650Z,-4.30
2019-01-20T03:23:39.290Z,-4.40
2019-01-20T03:24:39.920Z,-4.43
2019-01-20T03:25:40.553Z,-4.38
2019-01-20T03:26:41.190Z,-4.32
2019-01-20T03:27:41.830Z,-4.43
2019-01-20T03:28:42.447Z,-4.50
2019-01-20T03:29:43.084Z,-4.43
2019-01-20T03:30:43.718Z,-4.41
2019-01-20T03:31:44.353Z,-4.47
2019-01-20T03:32:44.994Z,-4.50
2019-01-20T03:33:45.725Z,-4.43
2019-01-20T03:34:46.363Z,-4.41
2019-01-20T03:35:46.995Z,-4.43
2019-01-20T03:36:47.634Z,-4.43
2019-01-20T03:37:48.264Z,-4.37
2019-01-20T03:38:48.899Z,-4.47
2019-01-20T03:39:49.532Z,-4.57
2019-01-20T03:40:50.166Z,-4.54
2019-01-20T03:41:50.797Z,-4.50
2019-01-20T03:42:51.444Z,-4.57
2019-01-20T03:43:52.073Z,-4.55
2019-01-20T03:44:53.705Z,-4.50
2019-01-20T03:45:54.346Z,-4.55
2019-01-20T03:46:54.975Z,-4.51
2019-01-20T03:47:55.607Z,-4.50
2019-01-20T03:48:56.247Z,-4.51
2019-01-20T03:49:56.884Z,-4.51
2019-01-20T03:50:57.521Z,-4.51
2019-01-20T03:51:58.144Z,-4.57
2019-01-20T03:52:58.793Z,-4.55
2019-01-20T03:53:59.425Z,-4.58
2019-01-20T03:55:00.093Z,-4.61
2019-01-20T03:56:00.695Z,-4.57
2019-01-20T03:57:01.336Z,-4.54
2019-01-20T03:58:01.958Z,-4.58
2019-01-20T03:59:02.596Z,-4.61
2019-01-20T04:00:03.236Z,-4.64
2019-01-20T04:01:03.868Z,-4.59
2019-01-20T04:02:04.502Z,-4.58
2019-01-20T04:03:05.146Z,-4.58
2019-01-20T04:04:05.785Z,-4.55
2019-01-20T04:05:06.408Z,-4.58
2019-01-20T04:06:07.044Z,-4.57
2019-01-20T04:07:07.669Z,-4.50
2019-01-20T04:08:08.319Z,-4.55
2019-01-20T04:09:08.944Z,-4.58
2019-01-20T04:10:09.574Z,-4.58
2019-01-20T04:11:10.211Z,-4.59
2019-01-20T04:12:10.845Z,-4.61
2019-01-20T04:13:11.568Z,-4.65
2019-01-20T04:14:12.099Z,-4.68
2019-01-20T04:15:12.745Z,-4.69
2019-01-20T04:16:13.365Z,-4.73
2019-01-20T04:17:14.005Z,-4.65
2019-01-20T04:18:14.630Z,-4.75
2019-01-20T04:19:15.261Z,-4.69
2019-01-20T04:20:15.893Z,-4.68
2019-01-20T04:21:16.522Z,-4.76
2019-01-20T04:53:29.079Z,-4.73
2019-01-20T04:54:29.686Z,-4.79
2019-01-20T04:57:23.786Z,-4.80
2019-01-20T04:58:24.435Z,-4.82
2019-01-20T05:01:18.662Z,-4.86
2019-01-20T05:02:19.295Z,-4.80
2019-01-20T05:05:13.822Z,-4.80
2019-01-20T05:06:14.425Z,-4.85
2019-01-20T05:09:08.634Z,-4.79
2019-01-20T05:10:09.289Z,-4.79
2019-01-20T05:13:03.374Z,-4.83
2019-01-20T05:14:04.020Z,-4.82
2019-01-20T05:16:58.178Z,-4.82
2019-01-20T05:17:58.806Z,-4.77
2019-01-20T05:18:59.435Z,-4.83
2019-01-20T05:20:00.274Z,-4.82
2019-01-20T05:21:00.699Z,-4.82
2019-01-20T05:22:01.410Z,-4.83
2019-01-20T05:23:01.982Z,-4.85
2019-01-20T05:24:02.623Z,-4.82
2019-01-20T05:25:03.247Z,-4.87
2019-01-20T05:26:03.872Z,-4.83
2019-01-20T05:27:04.506Z,-4.85
2019-01-20T05:28:05.140Z,-4.77
2019-01-20T05:29:05.774Z,-4.79
2019-01-20T05:30:06.411Z,-4.86
2019-01-20T05:31:07.049Z,-4.85
2019-01-20T05:32:07.691Z,-4.87
2019-01-20T05:33:08.317Z,-4.86
2019-01-20T05:34:08.948Z,-4.83
2019-01-20T05:35:09.594Z,-4.86
2019-01-20T05:36:10.212Z,-4.86
2019-01-20T05:37:10.844Z,-4.85
2019-01-20T05:38:11.474Z,-4.86
2019-01-20T05:39:12.121Z,-4.87
2019-01-20T05:40:12.762Z,-4.87
2019-01-20T05:41:13.393Z,-4.94
2019-01-20T05:42:14.023Z,-4.86
2019-01-20T05:43:14.659Z,-4.85
2019-01-20T05:44:15.292Z,-4.85
2019-01-20T05:45:15.927Z,-4.85
2019-01-20T05:46:16.564Z,-4.79
2019-01-20T05:47:17.199Z,-4.85
2019-01-20T05:48:17.830Z,-4.93
2019-01-20T05:49:18.470Z,-4.93
2019-01-20T05:50:19.105Z,-4.95
2019-01-20T05:51:19.743Z,-4.93
2019-01-20T05:52:20.359Z,-4.89
2019-01-20T05:53:20.987Z,-5.00
2019-01-20T05:54:21.626Z,-5.01
2019-01-20T05:55:22.266Z,-4.95
2019-01-20T05:56:22.891Z,-4.87
2019-01-20T05:57:23.531Z,-4.97
2019-01-20T05:58:24.178Z,-4.93
2019-01-20T05:59:24.807Z,-4.97
2019-01-20T06:00:25.441Z,-4.95
2019-01-20T06:01:27.318Z,-4.98
2019-01-20T06:02:26.696Z,-4.97
2019-01-20T06:03:27.338Z,-4.98
2019-01-20T06:04:27.967Z,-5.01
2019-01-20T06:05:28.605Z,-5.01
2019-01-20T06:06:29.235Z,-4.89
2019-01-20T06:07:29.866Z,-4.86
2019-01-20T06:08:30.495Z,-4.87
2019-01-20T06:09:31.126Z,-4.85
2019-01-20T06:10:31.759Z,-4.85
2019-01-20T06:11:32.395Z,-4.82
2019-01-20T06:12:33.025Z,-4.85
2019-01-20T06:13:33.662Z,-4.89
2019-01-20T06:14:34.298Z,-4.86
2019-01-20T06:15:34.933Z,-4.91
2019-01-20T06:16:35.562Z,-4.87
2019-01-20T06:17:36.194Z,-4.87
2019-01-20T06:18:36.823Z,-4.95
2019-01-20T06:19:37.461Z,-4.91
2019-01-20T06:20:38.093Z,-4.86
2019-01-20T06:21:38.726Z,-4.93
2019-01-20T06:22:39.358Z,-4.91
2019-01-20T06:23:40.001Z,-4.91
2019-01-20T06:24:40.624Z,-4.86
2019-01-20T06:25:41.265Z,-4.89
2019-01-20T06:26:41.889Z,-4.87
2019-01-20T06:27:42.523Z,-4.82
2019-01-20T06:28:43.147Z,-4.89
2019-01-20T06:29:43.788Z,-4.94
2019-01-20T06:30:44.423Z,-4.98
2019-01-20T06:31:45.051Z,-4.89
2019-01-20T06:32:45.689Z,-4.97
2019-01-20T06:33:46.322Z,-4.98
2019-01-20T06:34:46.952Z,-4.95
2019-01-20T06:35:47.594Z,-4.98
2019-01-20T06:36:50.070Z,-5.04
2019-01-20T06:37:50.712Z,-5.08
2019-01-20T06:38:51.343Z,-5.04
2019-01-20T06:39:51.979Z,-5.11
2019-01-20T06:40:52.616Z,-5.00
2019-01-20T06:41:53.241Z,-5.05
2019-01-20T06:43:01.231Z,-5.03
2019-01-20T06:43:54.514Z,-5.07
2019-01-20T06:44:55.191Z,-5.04
2019-01-20T06:45:55.814Z,-5.07
2019-01-20T06:46:56.442Z,-5.12
2019-01-20T06:47:57.067Z,-5.16
2019-01-20T06:48:57.707Z,-5.14
2019-01-20T06:49:58.339Z,-5.14
2019-01-20T06:50:58.986Z,-5.20
2019-01-20T06:51:59.621Z,-5.20
2019-01-20T06:53:00.265Z,-5.27
2019-01-20T06:54:00.884Z,-5.25
2019-01-20T06:55:01.518Z,-5.22
2019-01-20T06:56:02.172Z,-5.25
2019-01-20T06:57:02.792Z,-5.25
2019-01-20T06:58:03.511Z,-5.27
2019-01-20T06:59:04.163Z,-5.23
2019-01-20T07:00:04.856Z,-5.23
2019-01-20T07:01:05.500Z,-5.12
2019-01-20T07:02:06.198Z,-5.22
2019-01-20T07:03:06.828Z,-5.23
2019-01-20T07:04:07.542Z,-5.20
2019-01-20T07:05:08.173Z,-5.27
2019-01-20T07:06:08.888Z,-5.30
2019-01-20T07:07:09.524Z,-5.35
2019-01-20T07:08:10.230Z,-5.23
2019-01-20T07:09:10.857Z,-5.16
2019-01-20T07:10:11.601Z,-5.17
2019-01-20T07:11:12.230Z,-5.23
2019-01-20T07:12:12.928Z,-5.25
2019-01-20T07:13:13.548Z,-5.30
2019-01-20T07:14:14.278Z,-5.25
2019-01-20T07:15:14.908Z,-5.26
2019-01-20T07:16:15.543Z,-5.26
2019-01-20T07:17:16.170Z,-5.30
2019-01-20T07:18:16.861Z,-5.26
2019-01-20T07:19:17.491Z,-5.27
2019-01-20T07:20:18.197Z,-5.22
2019-01-20T07:21:18.834Z,-5.31
2019-01-20T07:22:19.540Z,-5.20
2019-01-20T07:23:20.187Z,-5.30
2019-01-20T07:24:20.888Z,-5.31
2019-01-20T07:25:21.521Z,-5.25
2019-01-20T07:26:22.236Z,-5.25
2019-01-20T07:27:22.856Z,-5.23
2019-01-20T07:28:23.577Z,-5.31
2019-01-20T07:29:24.741Z,-5.33
2019-01-20T07:30:24.924Z,-5.27
2019-01-20T07:31:25.565Z,-5.26
2019-01-20T07:32:26.200Z,-5.25
2019-01-20T07:33:26.835Z,-5.31
2019-01-20T07:34:27.632Z,-5.25
2019-01-20T07:35:28.143Z,-5.27
2019-01-20T07:36:28.856Z,-5.23
2019-01-20T07:37:29.484Z,-5.22
2019-01-20T07:38:30.220Z,-5.25
2019-01-20T07:39:30.875Z,-5.14
2019-01-20T07:40:31.545Z,-5.17
2019-01-20T07:41:32.175Z,-5.14
2019-01-20T07:42:32.889Z,-5.03
2019-01-20T07:43:33.514Z,-5.03
2019-01-20T07:44:34.235Z,-5.00
2019-01-20T07:45:34.868Z,-4.97
2019-01-20T07:46:35.479Z,-4.85
2019-01-20T07:47:36.062Z,-4.87
2019-01-20T07:48:36.627Z,-4.80
2019-01-20T07:49:37.210Z,-4.82
2019-01-20T07:50:37.854Z,-4.77
2019-01-20T07:51:38.441Z,-4.62
2019-01-20T07:52:39.099Z,-4.62
2019-01-20T07:53:39.667Z,-4.58
2019-01-20T07:54:40.345Z,-4.48
2019-01-20T07:55:40.918Z,-4.46
2019-01-20T07:56:41.492Z,-4.48
2019-01-20T07:57:42.067Z,-4.44
2019-01-20T07:58:42.741Z,-4.36
2019-01-20T07:59:43.297Z,-4.30
2019-01-20T08:00:43.985Z,-4.43
2019-01-20T08:01:44.549Z,-4.32
2019-01-20T08:02:45.211Z,-4.36
2019-01-20T08:03:45.779Z,-4.26
2019-01-20T08:04:46.364Z,-4.14
2019-01-20T08:05:46.938Z,-4.14
2019-01-20T08:06:47.519Z,-4.11
2019-01-20T08:07:48.092Z,-4.04
2019-01-20T08:08:48.744Z,-3.98
2019-01-20T08:09:49.315Z,-3.94
2019-01-20T08:10:49.975Z,-4.05
2019-01-20T08:11:50.555Z,-3.93
2019-01-20T08:12:51.129Z,-3.91
2019-01-20T08:13:51.711Z,-3.96
2019-01-20T08:14:52.287Z,-3.83
2019-01-20T08:15:52.871Z,-3.72
2019-01-20T08:16:53.443Z,-3.75
2019-01-20T08:17:54.037Z,-3.65
2019-01-20T08:18:54.594Z,-3.53
2019-01-20T08:19:57.066Z,-3.53
2019-01-20T08:20:57.651Z,-3.43
2019-01-20T08:21:58.234Z,-3.32
2019-01-20T08:22:58.830Z,-3.36
2019-01-20T08:23:59.390Z,-3.29
2019-01-20T08:24:59.971Z,-3.15
2019-01-20T08:26:00.543Z,-3.15
2019-01-20T08:27:01.122Z,-3.10
2019-01-20T08:28:01.706Z,-2.94
2019-01-20T08:29:02.294Z,-2.97
2019-01-20T08:30:02.861Z,-2.92
2019-01-20T08:31:03.442Z,-2.90
2019-01-20T08:32:04.141Z,-2.87
2019-01-20T08:33:04.717Z,-2.82
2019-01-20T08:34:05.293Z,-2.79
2019-01-20T08:35:05.901Z,-2.81
2019-01-20T08:36:06.485Z,-2.68
2019-01-20T08:37:07.141Z,-2.66
2019-01-20T08:38:07.724Z,-2.60
2019-01-20T08:39:08.383Z,-2.47
2019-01-20T08:40:08.964Z,-2.54
2019-01-20T08:41:09.654Z,-2.47
2019-01-20T08:42:10.205Z,-2.43
2019-01-20T08:43:10.870Z,-2.36
2019-01-20T08:44:11.445Z,-2.24
2019-01-20T08:45:12.115Z,-2.17
2019-01-20T08:46:12.716Z,-2.18
2019-01-20T08:47:14.424Z,-2.17
2019-01-20T08:48:14.963Z,-2.11
2019-01-20T08:49:15.537Z,-2.06
2019-01-20T08:50:16.137Z,-2.00
2019-01-20T08:51:16.727Z,-2.03
2019-01-20T08:52:17.427Z,-2.05
2019-01-20T08:53:17.968Z,-1.95
2019-01-20T08:54:18.626Z,-2.02
2019-01-20T08:55:19.213Z,-1.85
2019-01-20T08:56:19.868Z,-1.80
2019-01-20T08:57:20.448Z,-1.72
2019-01-20T08:58:21.119Z,-1.75
2019-01-20T08:59:21.692Z,-1.72
2019-01-20T09:00:22.350Z,-1.63
2019-01-20T09:01:22.929Z,-1.57
2019-01-20T09:02:23.595Z,-1.60
2019-01-20T09:03:24.173Z,-1.53
2019-01-20T09:04:45.806Z,-1.41
2019-01-20T09:05:46.392Z,-1.45
2019-01-20T09:06:54.627Z,-1.39
2019-01-20T09:07:55.210Z,-1.35
2019-01-20T09:09:23.618Z,-1.24
2019-01-20T09:10:24.202Z,-1.25
2019-01-20T09:11:26.810Z,-1.17
2019-01-20T09:12:27.388Z,-1.09
2019-01-20T09:13:27.963Z,-1.10
2019-01-20T09:14:28.549Z,-0.97
2019-01-20T09:15:29.190Z,-1.06
2019-01-20T09:16:29.770Z,-0.94
2019-01-20T09:17:30.433Z,-0.89
2019-01-20T09:18:31.015Z,-0.81
2019-01-20T09:19:31.677Z,-0.81
2019-01-20T09:20:32.256Z,-0.77
2019-01-20T09:21:32.924Z,-0.72
2019-01-20T09:22:33.501Z,-0.66
2019-01-20T09:23:35.201Z,-0.60
2019-01-20T09:24:35.776Z,-0.52
2019-01-20T09:25:36.428Z,-0.50
2019-01-20T09:26:37.006Z,-0.50
2019-01-20T09:27:37.669Z,-0.51
2019-01-20T09:28:38.251Z,-0.42
2019-01-20T09:29:38.910Z,-0.50
2019-01-20T09:30:39.489Z,-0.37
2019-01-20T09:31:40.151Z,-0.27
2019-01-20T09:32:40.734Z,-0.27
2019-01-20T09:33:43.343Z,-0.16
2019-01-20T09:34:43.925Z,-0.16
2019-01-20T09:35:44.588Z,-0.06
2019-01-20T09:36:45.169Z,-0.05
2019-01-20T09:37:46.854Z,0.00
2019-01-20T09:38:47.432Z,0.06
2019-01-20T09:39:50.146Z,0.18
2019-01-20T09:40:50.726Z,0.20
2019-01-20T09:41:52.409Z,0.23
2019-01-20T09:42:52.991Z,0.28
2019-01-20T09:43:55.708Z,0.39
2019-01-20T09:44:56.284Z,0.39
2019-01-20T09:45:56.942Z,0.49
2019-01-20T09:46:57.543Z,0.53
2019-01-20T09:47:58.184Z,0.64
2019-01-20T09:48:58.770Z,0.75
2019-01-20T09:50:00.450Z,0.79
2019-01-20T09:51:01.032Z,0.83
2019-01-20T09:52:08.654Z,0.89
2019-01-20T09:53:09.236Z,0.98
2019-01-20T09:54:09.824Z,1.10
2019-01-20T09:55:12.471Z,1.15
2019-01-20T09:56:13.047Z,1.32
2019-01-20T09:57:13.709Z,1.36
2019-01-20T09:58:14.290Z,1.39
2019-01-20T09:59:14.954Z,1.46
2019-01-20T10:00:15.540Z,1.50
2019-01-20T10:01:16.191Z,1.47
2019-01-20T10:02:16.769Z,1.42
2019-01-20T10:03:17.435Z,1.52
2019-01-20T10:04:18.016Z,1.55
2019-01-20T10:05:18.680Z,1.60
2019-01-20T10:06:19.259Z,1.69
2019-01-20T10:07:21.972Z,1.82
2019-01-20T10:08:22.549Z,1.80
2019-01-20T10:09:23.166Z,1.91
2019-01-20T10:10:23.748Z,2.08
2019-01-20T10:11:24.451Z,2.13
2019-01-20T10:12:25.033Z,2.08
2019-01-20T10:13:25.693Z,2.17
2019-01-20T10:14:26.274Z,2.33
2019-01-20T10:15:26.936Z,2.38
2019-01-20T10:16:27.522Z,2.40
2019-01-20T10:17:29.202Z,2.41
2019-01-20T10:18:29.784Z,2.51
2019-01-20T10:19:30.444Z,2.61
2019-01-20T10:20:31.026Z,2.70
2019-01-20T10:21:31.686Z,2.71
2019-01-20T10:22:32.267Z,2.69
2019-01-20T10:23:41.632Z,2.74
2019-01-20T10:24:42.217Z,2.85
2019-01-20T10:25:42.799Z,2.87
2019-01-20T10:26:45.446Z,2.84
2019-01-20T10:27:46.029Z,2.94
2019-01-20T10:28:47.710Z,2.98
2019-01-20T10:29:48.293Z,3.07
2019-01-20T10:30:50.889Z,3.10
2019-01-20T10:31:51.469Z,3.12
2019-01-20T10:32:52.152Z,3.12
2019-01-20T10:33:52.723Z,3.18
2019-01-20T10:34:53.385Z,3.20
2019-01-20T10:35:53.966Z,3.16
2019-01-20T10:36:55.654Z,3.23
2019-01-20T10:37:56.127Z,3.34
2019-01-20T10:38:58.741Z,3.42
2019-01-20T10:39:59.334Z,3.50
2019-01-20T10:40:59.984Z,3.57
2019-01-20T10:42:00.579Z,3.57
2019-01-20T10:43:01.233Z,3.68
2019-01-20T10:44:02.329Z,3.68
2019-01-20T10:45:02.464Z,3.75
2019-01-20T10:46:03.036Z,3.79
2019-01-20T10:47:03.728Z,3.90
2019-01-20T10:48:04.293Z,3.98
2019-01-20T10:49:05.363Z,3.89
2019-01-20T10:50:05.457Z,3.92
2019-01-20T10:51:06.190Z,3.96
2019-01-20T10:52:06.770Z,4.04
2019-01-20T10:53:07.354Z,4.03
2019-01-20T10:54:07.955Z,4.04
2019-01-20T10:55:08.565Z,4.12
2019-01-20T10:56:09.160Z,4.03
2019-01-20T10:57:09.816Z,4.19
2019-01-20T10:58:10.397Z,4.24
2019-01-20T10:59:11.058Z,4.19
2019-01-20T11:00:11.637Z,4.26
2019-01-20T11:01:12.297Z,4.36
2019-01-20T11:02:12.879Z,4.36
2019-01-20T11:03:13.540Z,4.47
2019-01-20T11:04:14.123Z,4.51
2019-01-20T11:05:14.789Z,4.67
2019-01-20T11:06:15.367Z,4.80
2019-01-20T11:07:16.344Z,5.04
2019-01-20T11:08:16.715Z,5.22
2019-01-20T11:09:17.375Z,5.37
2019-01-20T11:10:17.965Z,5.63
2019-01-20T11:11:18.663Z,5.78
2019-01-20T11:12:19.166Z,6.10
2019-01-20T11:13:19.945Z,6.54
2019-01-20T11:14:20.527Z,6.79
2019-01-20T11:15:21.111Z,7.44
2019-01-20T11:16:21.694Z,8.07
2019-01-20T11:17:22.279Z,8.88
2019-01-20T11:18:22.864Z,9.76
2019-01-20T11:19:23.608Z,10.58
2019-01-20T11:20:24.145Z,11.36
2019-01-20T11:21:24.730Z,12.13
2019-01-20T11:22:25.318Z,12.82
2019-01-20T11:23:25.898Z,13.27
2019-01-20T11:24:26.488Z,13.83
2019-01-20T11:25:27.075Z,14.21
2019-01-20T11:26:27.665Z,14.74
2019-01-20T11:27:28.246Z,15.21
2019-01-20T11:28:28.833Z,15.66
2019-01-20T11:29:29.421Z,16.40
2019-01-20T11:30:30.010Z,17.04
2019-01-20T11:31:30.593Z,17.70
2019-01-20T11:32:31.177Z,18.25
2019-01-20T11:33:31.784Z,18.65
2019-01-20T11:34:32.380Z,18.73
2019-01-20T11:35:34.001Z,18.58
2019-01-20T11:36:34.599Z,18.19
2019-01-20T11:37:35.187Z,17.82
2019-01-20T11:38:35.863Z,17.71
2019-01-20T11:39:36.457Z,17.76
2019-01-20T11:40:37.048Z,17.79
2019-01-20T11:41:37.726Z,18.06
2019-01-20T11:42:38.315Z,18.31
2019-01-20T11:43:38.969Z,18.72
2019-01-20T11:44:39.564Z,19.08
2019-01-20T11:45:40.211Z,19.48
2019-01-20T11:46:40.798Z,19.93
2019-01-20T11:47:41.975Z,20.15
2019-01-20T11:48:42.046Z,20.30
2019-01-20T11:49:43.719Z,20.20
2019-01-20T11:50:44.310Z,20.10
2019-01-20T11:51:44.963Z,20.10
2019-01-20T11:52:45.553Z,20.28
2019-01-20T11:53:46.205Z,20.46
2019-01-20T11:54:46.797Z,20.68
2019-01-20T11:55:47.448Z,20.98
2019-01-20T11:56:48.035Z,21.34
2019-01-20T11:57:48.695Z,21.41
2019-01-20T11:58:49.286Z,21.61
2019-01-20T11:59:49.933Z,21.61
2019-01-20T12:00:50.527Z,21.81
2019-01-20T12:01:51.172Z,21.98
2019-01-20T12:02:51.769Z,22.07
2019-01-20T12:03:52.422Z,22.41
2019-01-20T12:04:53.008Z,22.56
2019-01-20T12:05:53.667Z,22.53
2019-01-20T12:06:54.249Z,22.64
2019-01-20T12:07:55.928Z,22.62
2019-01-20T12:08:56.516Z,22.77
2019-01-20T12:09:57.111Z,22.93
2019-01-20T12:10:57.698Z,22.97
2019-01-20T12:11:58.286Z,23.14
2019-01-20T12:12:58.887Z,23.23
2019-01-20T12:13:59.487Z,23.22
2019-01-20T12:15:00.145Z,23.19
2019-01-20T12:16:00.695Z,23.08
2019-01-20T12:17:01.278Z,23.07
2019-01-20T12:18:01.861Z,22.96
2019-01-20T12:19:02.452Z,22.89
2019-01-20T12:20:03.038Z,22.86
2019-01-20T12:21:03.632Z,22.80
2019-01-20T12:22:04.223Z,22.80
2019-01-20T12:23:04.821Z,22.89
2019-01-20T12:24:05.412Z,22.99
2019-01-20T12:25:06.080Z,23.23
2019-01-20T12:26:06.676Z,23.39
2019-01-20T12:27:07.272Z,23.50
2019-01-20T12:28:08.966Z,23.45
2019-01-20T12:29:09.582Z,23.46
2019-01-20T12:30:10.173Z,23.40
2019-01-20T12:31:10.767Z,22.87
2019-01-20T12:32:11.358Z,22.41
2019-01-20T12:33:11.956Z,21.95
2019-01-20T12:34:12.541Z,21.51
2019-01-20T12:35:13.134Z,20.99
2019-01-20T12:36:13.735Z,20.69
2019-01-20T12:37:14.317Z,20.23
2019-01-20T12:38:14.906Z,19.93
2019-01-20T12:39:15.502Z,19.58
2019-01-20T12:40:16.093Z,19.18
2019-01-20T12:41:16.683Z,18.80
2019-01-20T12:42:17.275Z,18.33
2019-01-20T12:43:18.901Z,17.74
2019-01-20T12:44:19.491Z,17.20
2019-01-20T12:45:20.107Z,16.62
2019-01-20T12:46:20.671Z,16.26
2019-01-20T12:47:21.266Z,15.84
2019-01-20T12:48:21.850Z,15.42
2019-01-20T12:49:22.446Z,14.90
2019-01-20T12:50:23.036Z,14.49
2019-01-20T12:51:28.474Z,14.20
2019-01-20T12:52:24.237Z,13.96
2019-01-20T12:53:24.831Z,14.02
2019-01-20T12:54:25.437Z,14.35
2019-01-20T12:55:26.007Z,14.83
2019-01-20T12:56:26.595Z,15.35
2019-01-20T12:57:27.181Z,15.42
2019-01-20T12:58:27.798Z,15.51
2019-01-20T12:59:28.371Z,15.30
2019-01-20T13:00:28.966Z,15.23
2019-01-20T13:01:29.560Z,15.23
2019-01-20T13:02:30.143Z,15.30
2019-01-20T13:03:30.736Z,15.46
2019-01-20T13:04:31.322Z,15.67
2019-01-20T13:05:31.916Z,16.07
2019-01-20T13:06:32.538Z,16.26
2019-01-20T13:07:33.126Z,16.77
2019-01-20T13:08:33.779Z,17.17
2019-01-20T13:09:34.373Z,17.71
2019-01-20T13:10:34.958Z,17.89
2019-01-20T13:11:35.556Z,17.97
2019-01-20T13:12:36.145Z,17.87
2019-01-20T13:13:36.733Z,17.69
2019-01-20T13:14:39.162Z,17.44
2019-01-20T13:15:37.911Z,17.29
2019-01-20T13:16:38.503Z,17.10
2019-01-20T13:17:39.101Z,17.22
2019-01-20T13:18:39.686Z,17.15
2019-01-20T13:19:40.280Z,17.36
2019-01-20T13:20:40.895Z,17.82
2019-01-20T13:21:41.482Z,18.29
2019-01-20T13:22:42.075Z,18.90
2019-01-20T13:23:42.666Z,19.46
2019-01-20T13:24:43.258Z,20.03
2019-01-20T13:25:43.888Z,20.59
2019-01-20T13:26:44.444Z,21.08
2019-01-20T13:27:45.050Z,21.42
2019-01-20T13:28:45.627Z,21.79
2019-01-20T13:29:46.224Z,22.20
2019-01-20T13:30:46.927Z,22.52
2019-01-20T13:31:47.404Z,22.54
2019-01-20T13:32:47.990Z,22.59
2019-01-20T13:33:48.585Z,22.67
2019-01-20T13:34:49.180Z,22.74
2019-01-20T13:35:49.774Z,22.89
2019-01-20T13:36:50.365Z,23.08
2019-01-20T13:37:51.021Z,23.24
2019-01-20T13:38:51.573Z,23.31
2019-01-20T13:39:52.166Z,23.32
2019-01-20T13:40:52.767Z,23.45
2019-01-20T13:41:53.387Z,23.65
2019-01-20T13:42:53.963Z,23.92
2019-01-20T13:43:54.557Z,24.10
2019-01-20T13:44:55.152Z,24.34
2019-01-20T13:45:55.738Z,24.41
2019-01-20T13:46:56.337Z,24.50
2019-01-20T13:47:56.922Z,24.60